Lianping, China
Current Conditions -  °F | °C
As of 4:30 AM on Wednesday 26 Nov 2014 (Local Time) from ZGGG Reporting Station
Clear Clear  
Wind Chill: 64°   Ceiling: Unl
Heat Index: 64°   Visibility: 4mi
Dew Point: 59°   Wind: 9mph
Humidity: 83%   Direction: 330°NNW
Pressure: 29.91"   Gusts: NA
Location:  24.37°N, 114.48°E
Report Text: ZGGG 252030Z 33004MPS 7000 NSC 18/15 Q1013 NOSIG
Loading
Personal Weather Stations






























Interactive Weather Map New forecast layout! Learn more

10-Day Weather Forecast

Advertisements
Track Severe Weather on mobile